sensor_id;sensor_type;location;lat;lon;timestamp;P1;durP1;ratioP1;P2;durP2;ratioP2
51304;SDS011;37392;50.964;6.952;2022-10-16T00:00:18;4.47;;;2.25;;
51304;SDS011;37392;50.964;6.952;2022-10-16T00:02:44;4.47;;;3.05;;
51304;SDS011;37392;50.964;6.952;2022-10-16T00:05:09;5.13;;;2.45;;
51304;SDS011;37392;50.964;6.952;2022-10-16T00:07:35;2.88;;;1.73;;
51304;SDS011;37392;50.964;6.952;2022-10-16T00:10:00;5.90;;;2.28;;
51304;SDS011;37392;50.964;6.952;2022-10-16T00:12:26;4.72;;;2.20;;
51304;SDS011;37392;50.964;6.952;2022-10-16T00:14:52;3.95;;;2.20;;
51304;SDS011;37392;50.964;6.952;2022-10-16T00:17:18;4.57;;;1.70;;
51304;SDS011;37392;50.964;6.952;2022-10-16T00:19:43;8.50;;;2.20;;
51304;SDS011;37392;50.964;6.952;2022-10-16T00:22:09;11.25;;;2.90;;
51304;SDS011;37392;50.964;6.952;2022-10-16T00:24:34;8.57;;;1.90;;
51304;SDS011;37392;50.964;6.952;2022-10-16T00:27:04;3.55;;;1.88;;
51304;SDS011;37392;50.964;6.952;2022-10-16T00:29:30;6.88;;;2.53;;
51304;SDS011;37392;50.964;6.952;2022-10-16T00:31:55;5.90;;;2.50;;
51304;SDS011;37392;50.964;6.952;2022-10-16T00:34:21;7.22;;;2.40;;
51304;SDS011;37392;50.964;6.952;2022-10-16T00:36:46;9.57;;;5.95;;
51304;SDS011;37392;50.964;6.952;2022-10-16T00:39:12;5.00;;;2.63;;
51304;SDS011;37392;50.964;6.952;2022-10-16T00:41:38;3.20;;;2.17;;
51304;SDS011;37392;50.964;6.952;2022-10-16T00:44:40;3.10;;;1.83;;
51304;SDS011;37392;50.964;6.952;2022-10-16T00:47:19;15.55;;;2.15;;
51304;SDS011;37392;50.964;6.952;2022-10-16T00:49:53;4.88;;;2.80;;
51304;SDS011;37392;50.964;6.952;2022-10-16T00:52:44;3.20;;;2.35;;
51304;SDS011;37392;50.964;6.952;2022-10-16T00:55:12;3.28;;;2.15;;
51304;SDS011;37392;50.964;6.952;2022-10-16T00:57:39;3.10;;;2.08;;
51304;SDS011;37392;50.964;6.952;2022-10-16T01:00:06;2.92;;;1.88;;
51304;SDS011;37392;50.964;6.952;2022-10-16T01:02:34;4.20;;;2.42;;
51304;SDS011;37392;50.964;6.952;2022-10-16T01:05:00;5.57;;;2.08;;
51304;SDS011;37392;50.964;6.952;2022-10-16T01:13:26;4.20;;;1.85;;
51304;SDS011;37392;50.964;6.952;2022-10-16T01:16:06;6.40;;;2.10;;
51304;SDS011;37392;50.964;6.952;2022-10-16T01:22:09;2.25;;;1.50;;
51304;SDS011;37392;50.964;6.952;2022-10-16T01:24:44;2.72;;;1.40;;
51304;SDS011;37392;50.964;6.952;2022-10-16T01:27:19;2.75;;;1.50;;
51304;SDS011;37392;50.964;6.952;2022-10-16T01:30:04;3.38;;;1.40;;
51304;SDS011;37392;50.964;6.952;2022-10-16T01:35:31;2.10;;;1.33;;
51304;SDS011;37392;50.964;6.952;2022-10-16T01:38:17;2.50;;;1.63;;
51304;SDS011;37392;50.964;6.952;2022-10-16T01:40:51;6.95;;;1.50;;
51304;SDS011;37392;50.964;6.952;2022-10-16T01:43:26;2.85;;;1.90;;
51304;SDS011;37392;50.964;6.952;2022-10-16T01:46:01;7.30;;;1.90;;
51304;SDS011;37392;50.964;6.952;2022-10-16T01:48:27;4.53;;;1.75;;
51304;SDS011;37392;50.964;6.952;2022-10-16T01:51:03;2.03;;;1.45;;
51304;SDS011;37392;50.964;6.952;2022-10-16T01:53:37;1.73;;;1.33;;
51304;SDS011;37392;50.964;6.952;2022-10-16T01:56:04;14.05;;;1.50;;
51304;SDS011;37392;50.964;6.952;2022-10-16T01:58:35;7.63;;;2.00;;
51304;SDS011;37392;50.964;6.952;2022-10-16T02:01:07;6.03;;;1.40;;
51304;SDS011;37392;50.964;6.952;2022-10-16T02:03:37;3.55;;;1.80;;
51304;SDS011;37392;50.964;6.952;2022-10-16T02:06:06;3.75;;;1.50;;
51304;SDS011;37392;50.964;6.952;2022-10-16T02:08:32;2.35;;;1.10;;
51304;SDS011;37392;50.964;6.952;2022-10-16T02:11:00;4.28;;;2.13;;
51304;SDS011;37392;50.964;6.952;2022-10-16T02:16:20;6.30;;;1.83;;
51304;SDS011;37392;50.964;6.952;2022-10-16T02:18:48;5.50;;;1.90;;
51304;SDS011;37392;50.964;6.952;2022-10-16T02:21:19;2.88;;;1.67;;
51304;SDS011;37392;50.964;6.952;2022-10-16T02:24:03;4.60;;;1.42;;
51304;SDS011;37392;50.964;6.952;2022-10-16T02:29:30;2.72;;;1.20;;
51304;SDS011;37392;50.964;6.952;2022-10-16T02:31:59;4.82;;;2.60;;
51304;SDS011;37392;50.964;6.952;2022-10-16T02:34:28;3.75;;;2.35;;
51304;SDS011;37392;50.964;6.952;2022-10-16T02:36:55;2.78;;;1.55;;
51304;SDS011;37392;50.964;6.952;2022-10-16T02:39:23;5.50;;;1.35;;
51304;SDS011;37392;50.964;6.952;2022-10-16T02:41:49;3.30;;;2.08;;
51304;SDS011;37392;50.964;6.952;2022-10-16T02:44:14;4.15;;;1.70;;
51304;SDS011;37392;50.964;6.952;2022-10-16T02:46:40;2.97;;;1.30;;
51304;SDS011;37392;50.964;6.952;2022-10-16T02:49:05;2.10;;;1.10;;
51304;SDS011;37392;50.964;6.952;2022-10-16T02:51:31;3.13;;;0.90;;
51304;SDS011;37392;50.964;6.952;2022-10-16T02:53:56;0.95;;;0.88;;
51304;SDS011;37392;50.964;6.952;2022-10-16T02:56:22;4.15;;;1.25;;
51304;SDS011;37392;50.964;6.952;2022-10-16T02:58:48;1.42;;;1.08;;
51304;SDS011;37392;50.964;6.952;2022-10-16T03:01:14;1.75;;;1.38;;
51304;SDS011;37392;50.964;6.952;2022-10-16T03:03:41;3.00;;;1.38;;
51304;SDS011;37392;50.964;6.952;2022-10-16T03:06:07;3.38;;;1.05;;
51304;SDS011;37392;50.964;6.952;2022-10-16T03:08:33;1.35;;;1.10;;
51304;SDS011;37392;50.964;6.952;2022-10-16T03:10:59;1.92;;;1.10;;
51304;SDS011;37392;50.964;6.952;2022-10-16T03:13:25;1.13;;;1.00;;
51304;SDS011;37392;50.964;6.952;2022-10-16T03:15:50;2.65;;;1.42;;
51304;SDS011;37392;50.964;6.952;2022-10-16T03:18:16;19.55;;;2.17;;
51304;SDS011;37392;50.964;6.952;2022-10-16T03:20:45;2.70;;;1.60;;
51304;SDS011;37392;50.964;6.952;2022-10-16T03:23:10;4.00;;;1.42;;
51304;SDS011;37392;50.964;6.952;2022-10-16T03:25:39;3.10;;;1.40;;
51304;SDS011;37392;50.964;6.952;2022-10-16T03:28:04;1.70;;;1.30;;
51304;SDS011;37392;50.964;6.952;2022-10-16T03:30:30;5.93;;;1.35;;
51304;SDS011;37392;50.964;6.952;2022-10-16T03:32:56;1.58;;;0.98;;
51304;SDS011;37392;50.964;6.952;2022-10-16T03:35:22;2.22;;;1.45;;
51304;SDS011;37392;50.964;6.952;2022-10-16T03:37:49;2.90;;;1.17;;
51304;SDS011;37392;50.964;6.952;2022-10-16T03:40:16;3.03;;;1.00;;
51304;SDS011;37392;50.964;6.952;2022-10-16T03:42:42;1.40;;;1.30;;
51304;SDS011;37392;50.964;6.952;2022-10-16T03:45:09;2.00;;;1.40;;
51304;SDS011;37392;50.964;6.952;2022-10-16T03:47:35;2.45;;;1.13;;
51304;SDS011;37392;50.964;6.952;2022-10-16T03:50:01;3.45;;;1.45;;
51304;SDS011;37392;50.964;6.952;2022-10-16T03:52:28;1.20;;;1.00;;
51304;SDS011;37392;50.964;6.952;2022-10-16T03:54:54;4.70;;;1.30;;
51304;SDS011;37392;50.964;6.952;2022-10-16T03:57:19;9.77;;;1.70;;
51304;SDS011;37392;50.964;6.952;2022-10-16T03:59:45;2.78;;;1.58;;
51304;SDS011;37392;50.964;6.952;2022-10-16T04:02:11;6.03;;;1.52;;
51304;SDS011;37392;50.964;6.952;2022-10-16T04:04:40;3.20;;;2.00;;
51304;SDS011;37392;50.964;6.952;2022-10-16T04:07:05;1.70;;;1.05;;
51304;SDS011;37392;50.964;6.952;2022-10-16T04:09:31;1.88;;;0.90;;
51304;SDS011;37392;50.964;6.952;2022-10-16T04:11:56;5.55;;;0.98;;
51304;SDS011;37392;50.964;6.952;2022-10-16T04:14:22;3.13;;;1.33;;
51304;SDS011;37392;50.964;6.952;2022-10-16T04:16:47;3.60;;;1.08;;
51304;SDS011;37392;50.964;6.952;2022-10-16T04:19:13;2.83;;;1.20;;
51304;SDS011;37392;50.964;6.952;2022-10-16T04:21:39;1.98;;;1.20;;
51304;SDS011;37392;50.964;6.952;2022-10-16T04:24:04;2.00;;;1.30;;
51304;SDS011;37392;50.964;6.952;2022-10-16T04:26:30;2.40;;;1.05;;
51304;SDS011;37392;50.964;6.952;2022-10-16T04:28:55;2.75;;;1.85;;
51304;SDS011;37392;50.964;6.952;2022-10-16T04:31:21;2.58;;;1.10;;
51304;SDS011;37392;50.964;6.952;2022-10-16T04:33:47;6.00;;;1.30;;
51304;SDS011;37392;50.964;6.952;2022-10-16T04:36:12;6.05;;;1.20;;
51304;SDS011;37392;50.964;6.952;2022-10-16T04:38:38;2.67;;;0.98;;
51304;SDS011;37392;50.964;6.952;2022-10-16T04:41:05;5.13;;;1.33;;
51304;SDS011;37392;50.964;6.952;2022-10-16T04:43:32;5.47;;;0.90;;
51304;SDS011;37392;50.964;6.952;2022-10-16T04:45:59;4.93;;;1.00;;
51304;SDS011;37392;50.964;6.952;2022-10-16T04:48:24;1.23;;;0.80;;
51304;SDS011;37392;50.964;6.952;2022-10-16T04:50:50;2.10;;;1.02;;
51304;SDS011;37392;50.964;6.952;2022-10-16T04:53:16;3.95;;;0.82;;
51304;SDS011;37392;50.964;6.952;2022-10-16T04:55:42;1.48;;;1.10;;
51304;SDS011;37392;50.964;6.952;2022-10-16T04:58:08;1.70;;;1.02;;
51304;SDS011;37392;50.964;6.952;2022-10-16T05:00:34;4.38;;;1.27;;
51304;SDS011;37392;50.964;6.952;2022-10-16T05:03:00;10.52;;;2.25;;
51304;SDS011;37392;50.964;6.952;2022-10-16T05:05:26;3.58;;;0.90;;
51304;SDS011;37392;50.964;6.952;2022-10-16T05:07:52;3.95;;;0.93;;
51304;SDS011;37392;50.964;6.952;2022-10-16T05:10:18;3.40;;;0.80;;
51304;SDS011;37392;50.964;6.952;2022-10-16T05:12:44;2.65;;;1.05;;
51304;SDS011;37392;50.964;6.952;2022-10-16T05:15:10;3.28;;;1.45;;
51304;SDS011;37392;50.964;6.952;2022-10-16T05:17:36;6.75;;;1.20;;
51304;SDS011;37392;50.964;6.952;2022-10-16T05:20:02;3.10;;;2.80;;
51304;SDS011;37392;50.964;6.952;2022-10-16T05:22:28;2.08;;;1.33;;
51304;SDS011;37392;50.964;6.952;2022-10-16T05:24:54;3.17;;;0.90;;
51304;SDS011;37392;50.964;6.952;2022-10-16T05:27:20;3.42;;;1.35;;
51304;SDS011;37392;50.964;6.952;2022-10-16T05:29:46;3.80;;;1.45;;
51304;SDS011;37392;50.964;6.952;2022-10-16T05:32:16;1.42;;;1.02;;
51304;SDS011;37392;50.964;6.952;2022-10-16T05:34:43;4.13;;;1.93;;
51304;SDS011;37392;50.964;6.952;2022-10-16T05:37:10;2.08;;;1.48;;
51304;SDS011;37392;50.964;6.952;2022-10-16T05:39:36;1.73;;;1.17;;
51304;SDS011;37392;50.964;6.952;2022-10-16T05:42:05;5.00;;;1.55;;
51304;SDS011;37392;50.964;6.952;2022-10-16T05:44:31;1.63;;;1.33;;
51304;SDS011;37392;50.964;6.952;2022-10-16T05:46:56;5.60;;;1.80;;
51304;SDS011;37392;50.964;6.952;2022-10-16T05:49:22;2.53;;;1.50;;
51304;SDS011;37392;50.964;6.952;2022-10-16T05:51:48;5.30;;;2.30;;
51304;SDS011;37392;50.964;6.952;2022-10-16T05:54:14;5.03;;;1.95;;
51304;SDS011;37392;50.964;6.952;2022-10-16T05:56:39;3.50;;;1.90;;
51304;SDS011;37392;50.964;6.952;2022-10-16T05:59:05;4.82;;;2.22;;
51304;SDS011;37392;50.964;6.952;2022-10-16T06:01:30;5.18;;;2.33;;
51304;SDS011;37392;50.964;6.952;2022-10-16T06:03:57;5.38;;;1.23;;
51304;SDS011;37392;50.964;6.952;2022-10-16T06:06:25;4.28;;;1.20;;
51304;SDS011;37392;50.964;6.952;2022-10-16T06:08:53;3.75;;;1.27;;
51304;SDS011;37392;50.964;6.952;2022-10-16T06:11:24;12.63;;;5.13;;
51304;SDS011;37392;50.964;6.952;2022-10-16T06:13:53;4.88;;;2.05;;
51304;SDS011;37392;50.964;6.952;2022-10-16T06:16:22;2.90;;;1.80;;
51304;SDS011;37392;50.964;6.952;2022-10-16T06:18:52;5.55;;;2.10;;
51304;SDS011;37392;50.964;6.952;2022-10-16T06:21:21;2.30;;;1.48;;
51304;SDS011;37392;50.964;6.952;2022-10-16T06:23:52;6.63;;;2.20;;
51304;SDS011;37392;50.964;6.952;2022-10-16T06:26:23;3.35;;;2.08;;
51304;SDS011;37392;50.964;6.952;2022-10-16T06:28:53;4.27;;;1.53;;
51304;SDS011;37392;50.964;6.952;2022-10-16T06:31:22;8.32;;;1.40;;
51304;SDS011;37392;50.964;6.952;2022-10-16T06:33:52;4.35;;;1.50;;
51304;SDS011;37392;50.964;6.952;2022-10-16T06:36:18;7.57;;;2.40;;
51304;SDS011;37392;50.964;6.952;2022-10-16T06:38:45;4.43;;;2.20;;
51304;SDS011;37392;50.964;6.952;2022-10-16T06:41:12;3.08;;;1.58;;
51304;SDS011;37392;50.964;6.952;2022-10-16T06:43:40;7.28;;;1.85;;
51304;SDS011;37392;50.964;6.952;2022-10-16T06:46:07;5.50;;;1.70;;
51304;SDS011;37392;50.964;6.952;2022-10-16T06:48:35;3.30;;;1.67;;
51304;SDS011;37392;50.964;6.952;2022-10-16T06:51:03;3.90;;;1.60;;
51304;SDS011;37392;50.964;6.952;2022-10-16T06:53:33;1.73;;;1.17;;
51304;SDS011;37392;50.964;6.952;2022-10-16T06:58:41;7.25;;;1.58;;
51304;SDS011;37392;50.964;6.952;2022-10-16T07:01:07;5.80;;;1.85;;
51304;SDS011;37392;50.964;6.952;2022-10-16T07:03:35;4.53;;;1.42;;
51304;SDS011;37392;50.964;6.952;2022-10-16T07:06:03;6.68;;;1.55;;
51304;SDS011;37392;50.964;6.952;2022-10-16T07:08:32;9.52;;;1.50;;
51304;SDS011;37392;50.964;6.952;2022-10-16T07:10:59;2.03;;;1.20;;
51304;SDS011;37392;50.964;6.952;2022-10-16T07:13:26;3.45;;;1.70;;
51304;SDS011;37392;50.964;6.952;2022-10-16T07:15:52;4.90;;;3.03;;
51304;SDS011;37392;50.964;6.952;2022-10-16T07:18:18;4.43;;;1.33;;
51304;SDS011;37392;50.964;6.952;2022-10-16T07:20:43;9.23;;;1.50;;
51304;SDS011;37392;50.964;6.952;2022-10-16T07:23:09;4.22;;;1.35;;
51304;SDS011;37392;50.964;6.952;2022-10-16T07:25:34;5.82;;;1.50;;
51304;SDS011;37392;50.964;6.952;2022-10-16T07:28:00;2.25;;;1.33;;
51304;SDS011;37392;50.964;6.952;2022-10-16T07:30:26;3.15;;;1.45;;
51304;SDS011;37392;50.964;6.952;2022-10-16T07:32:51;1.55;;;1.02;;
51304;SDS011;37392;50.964;6.952;2022-10-16T07:35:17;4.97;;;1.30;;
51304;SDS011;37392;50.964;6.952;2022-10-16T07:37:46;1.48;;;1.00;;
51304;SDS011;37392;50.964;6.952;2022-10-16T07:40:11;5.22;;;1.27;;
51304;SDS011;37392;50.964;6.952;2022-10-16T07:42:37;7.38;;;1.58;;
51304;SDS011;37392;50.964;6.952;2022-10-16T07:45:03;2.05;;;0.90;;
51304;SDS011;37392;50.964;6.952;2022-10-16T07:47:29;3.28;;;1.33;;
51304;SDS011;37392;50.964;6.952;2022-10-16T07:49:55;2.83;;;1.25;;
51304;SDS011;37392;50.964;6.952;2022-10-16T07:52:20;2.10;;;1.13;;
51304;SDS011;37392;50.964;6.952;2022-10-16T07:54:46;1.90;;;1.35;;
51304;SDS011;37392;50.964;6.952;2022-10-16T07:57:12;5.22;;;1.50;;
51304;SDS011;37392;50.964;6.952;2022-10-16T07:59:43;3.88;;;1.98;;
51304;SDS011;37392;50.964;6.952;2022-10-16T08:02:10;2.22;;;1.42;;
51304;SDS011;37392;50.964;6.952;2022-10-16T08:04:36;1.23;;;0.80;;
51304;SDS011;37392;50.964;6.952;2022-10-16T08:07:01;8.32;;;1.30;;
51304;SDS011;37392;50.964;6.952;2022-10-16T08:09:27;5.25;;;1.67;;
51304;SDS011;37392;50.964;6.952;2022-10-16T08:11:52;2.17;;;0.80;;
51304;SDS011;37392;50.964;6.952;2022-10-16T08:14:18;2.08;;;0.98;;
51304;SDS011;37392;50.964;6.952;2022-10-16T08:16:43;5.10;;;1.92;;
51304;SDS011;37392;50.964;6.952;2022-10-16T08:19:09;2.78;;;1.42;;
51304;SDS011;37392;50.964;6.952;2022-10-16T08:21:35;3.20;;;2.00;;
51304;SDS011;37392;50.964;6.952;2022-10-16T08:24:00;3.45;;;1.30;;
51304;SDS011;37392;50.964;6.952;2022-10-16T08:26:26;4.78;;;0.90;;
51304;SDS011;37392;50.964;6.952;2022-10-16T08:28:52;3.28;;;1.17;;
51304;SDS011;37392;50.964;6.952;2022-10-16T08:31:18;4.10;;;0.85;;
51304;SDS011;37392;50.964;6.952;2022-10-16T08:33:44;3.20;;;1.05;;
51304;SDS011;37392;50.964;6.952;2022-10-16T08:36:14;3.20;;;1.03;;
51304;SDS011;37392;50.964;6.952;2022-10-16T08:38:41;10.02;;;4.72;;
51304;SDS011;37392;50.964;6.952;2022-10-16T08:49:55;4.15;;;1.10;;
51304;SDS011;37392;50.964;6.952;2022-10-16T08:52:29;2.08;;;1.38;;
51304;SDS011;37392;50.964;6.952;2022-10-16T08:54:58;1.35;;;0.93;;
51304;SDS011;37392;50.964;6.952;2022-10-16T08:57:24;2.95;;;0.85;;
51304;SDS011;37392;50.964;6.952;2022-10-16T08:59:52;3.67;;;0.90;;
51304;SDS011;37392;50.964;6.952;2022-10-16T09:08:04;6.65;;;1.38;;
51304;SDS011;37392;50.964;6.952;2022-10-16T09:21:43;3.70;;;1.08;;
51304;SDS011;37392;50.964;6.952;2022-10-16T09:26:43;2.72;;;1.08;;
51304;SDS011;37392;50.964;6.952;2022-10-16T09:29:11;2.95;;;1.02;;
51304;SDS011;37392;50.964;6.952;2022-10-16T09:31:40;4.68;;;1.02;;
51304;SDS011;37392;50.964;6.952;2022-10-16T09:34:08;6.20;;;0.98;;
51304;SDS011;37392;50.964;6.952;2022-10-16T09:36:48;4.55;;;0.95;;
51304;SDS011;37392;50.964;6.952;2022-10-16T09:39:14;1.88;;;0.80;;
51304;SDS011;37392;50.964;6.952;2022-10-16T09:41:41;2.08;;;0.90;;
51304;SDS011;37392;50.964;6.952;2022-10-16T09:46:48;2.47;;;0.75;;
51304;SDS011;37392;50.964;6.952;2022-10-16T09:49:21;3.25;;;0.90;;
51304;SDS011;37392;50.964;6.952;2022-10-16T09:52:02;3.35;;;0.80;;
51304;SDS011;37392;50.964;6.952;2022-10-16T09:54:37;4.50;;;0.80;;
51304;SDS011;37392;50.964;6.952;2022-10-16T09:57:06;2.60;;;0.77;;
51304;SDS011;37392;50.964;6.952;2022-10-16T09:59:33;2.30;;;1.02;;
51304;SDS011;37392;50.964;6.952;2022-10-16T10:02:01;3.00;;;1.02;;
51304;SDS011;37392;50.964;6.952;2022-10-16T10:04:41;1.77;;;0.70;;
51304;SDS011;37392;50.964;6.952;2022-10-16T10:07:35;2.42;;;0.65;;
51304;SDS011;37392;50.964;6.952;2022-10-16T10:10:23;1.40;;;0.50;;
51304;SDS011;37392;50.964;6.952;2022-10-16T10:12:52;4.07;;;1.13;;
51304;SDS011;37392;50.964;6.952;2022-10-16T10:15:20;3.15;;;1.42;;
51304;SDS011;37392;50.964;6.952;2022-10-16T10:23:19;2.65;;;1.13;;
51304;SDS011;37392;50.964;6.952;2022-10-16T10:31:55;2.55;;;0.80;;
51304;SDS011;37392;50.964;6.952;2022-10-16T10:37:35;2.78;;;0.60;;
51304;SDS011;37392;50.964;6.952;2022-10-16T10:43:09;4.03;;;0.73;;
51304;SDS011;37392;50.964;6.952;2022-10-16T10:46:04;5.05;;;1.02;;
51304;SDS011;37392;50.964;6.952;2022-10-16T10:51:31;3.78;;;2.05;;
51304;SDS011;37392;50.964;6.952;2022-10-16T10:54:22;3.22;;;1.27;;
51304;SDS011;37392;50.964;6.952;2022-10-16T10:57:00;2.95;;;1.20;;
51304;SDS011;37392;50.964;6.952;2022-10-16T10:59:40;2.58;;;0.85;;
51304;SDS011;37392;50.964;6.952;2022-10-16T11:02:50;1.08;;;0.90;;
51304;SDS011;37392;50.964;6.952;2022-10-16T11:05:44;6.40;;;0.55;;
51304;SDS011;37392;50.964;6.952;2022-10-16T11:08:20;2.08;;;0.65;;
51304;SDS011;37392;50.964;6.952;2022-10-16T11:10:53;15.98;;;5.75;;
51304;SDS011;37392;50.964;6.952;2022-10-16T11:13:32;6.50;;;1.88;;
51304;SDS011;37392;50.964;6.952;2022-10-16T11:16:23;9.15;;;1.30;;
51304;SDS011;37392;50.964;6.952;2022-10-16T11:27:36;3.55;;;0.95;;
51304;SDS011;37392;50.964;6.952;2022-10-16T11:30:18;4.40;;;1.02;;
51304;SDS011;37392;50.964;6.952;2022-10-16T11:38:17;2.20;;;0.70;;
51304;SDS011;37392;50.964;6.952;2022-10-16T11:55:32;4.00;;;1.40;;
51304;SDS011;37392;50.964;6.952;2022-10-16T11:58:03;2.78;;;0.95;;
51304;SDS011;37392;50.964;6.952;2022-10-16T12:01:22;6.15;;;1.90;;
51304;SDS011;37392;50.964;6.952;2022-10-16T12:04:02;5.05;;;1.30;;
51304;SDS011;37392;50.964;6.952;2022-10-16T12:09:18;2.53;;;0.73;;
51304;SDS011;37392;50.964;6.952;2022-10-16T12:11:51;4.85;;;1.67;;
51304;SDS011;37392;50.964;6.952;2022-10-16T12:17:02;4.40;;;2.08;;
51304;SDS011;37392;50.964;6.952;2022-10-16T12:20:12;1.50;;;0.70;;
51304;SDS011;37392;50.964;6.952;2022-10-16T12:22:59;2.95;;;1.30;;
51304;SDS011;37392;50.964;6.952;2022-10-16T12:28:20;2.25;;;0.70;;
51304;SDS011;37392;50.964;6.952;2022-10-16T12:30:54;2.85;;;0.98;;
51304;SDS011;37392;50.964;6.952;2022-10-16T12:35:53;3.25;;;0.82;;
51304;SDS011;37392;50.964;6.952;2022-10-16T12:38:21;5.57;;;1.75;;
51304;SDS011;37392;50.964;6.952;2022-10-16T12:41:26;5.80;;;0.77;;
51304;SDS011;37392;50.964;6.952;2022-10-16T12:43:55;3.30;;;0.75;;
51304;SDS011;37392;50.964;6.952;2022-10-16T12:46:33;2.35;;;0.70;;
51304;SDS011;37392;50.964;6.952;2022-10-16T12:49:16;0.65;;;0.40;;
51304;SDS011;37392;50.964;6.952;2022-10-16T12:51:53;2.00;;;0.90;;
51304;SDS011;37392;50.964;6.952;2022-10-16T12:57:01;3.92;;;1.10;;
51304;SDS011;37392;50.964;6.952;2022-10-16T12:59:59;0.95;;;0.63;;
51304;SDS011;37392;50.964;6.952;2022-10-16T13:05:50;4.30;;;1.38;;
51304;SDS011;37392;50.964;6.952;2022-10-16T13:25:21;5.65;;;0.80;;
51304;SDS011;37392;50.964;6.952;2022-10-16T13:28:21;4.07;;;1.33;;
51304;SDS011;37392;50.964;6.952;2022-10-16T13:30:54;5.25;;;0.80;;
51304;SDS011;37392;50.964;6.952;2022-10-16T13:36:03;1.65;;;0.73;;
51304;SDS011;37392;50.964;6.952;2022-10-16T13:38:30;2.05;;;1.00;;
51304;SDS011;37392;50.964;6.952;2022-10-16T13:41:00;9.65;;;0.95;;
51304;SDS011;37392;50.964;6.952;2022-10-16T13:43:41;1.17;;;0.70;;
51304;SDS011;37392;50.964;6.952;2022-10-16T13:46:21;2.28;;;0.70;;
51304;SDS011;37392;50.964;6.952;2022-10-16T13:49:00;1.38;;;0.75;;
51304;SDS011;37392;50.964;6.952;2022-10-16T13:51:30;1.35;;;0.88;;
51304;SDS011;37392;50.964;6.952;2022-10-16T13:53:58;2.97;;;1.33;;
51304;SDS011;37392;50.964;6.952;2022-10-16T13:56:28;3.05;;;1.33;;
51304;SDS011;37392;50.964;6.952;2022-10-16T14:01:31;2.95;;;0.60;;
51304;SDS011;37392;50.964;6.952;2022-10-16T14:04:01;1.13;;;0.65;;
51304;SDS011;37392;50.964;6.952;2022-10-16T14:06:30;0.68;;;0.57;;
51304;SDS011;37392;50.964;6.952;2022-10-16T14:11:27;3.35;;;1.00;;
51304;SDS011;37392;50.964;6.952;2022-10-16T14:13:52;1.45;;;0.68;;
51304;SDS011;37392;50.964;6.952;2022-10-16T14:16:20;5.95;;;1.55;;
51304;SDS011;37392;50.964;6.952;2022-10-16T14:18:56;2.47;;;0.82;;
51304;SDS011;37392;50.964;6.952;2022-10-16T14:21:25;3.20;;;0.90;;
51304;SDS011;37392;50.964;6.952;2022-10-16T14:23:52;2.65;;;0.60;;
51304;SDS011;37392;50.964;6.952;2022-10-16T14:26:24;5.00;;;1.13;;
51304;SDS011;37392;50.964;6.952;2022-10-16T14:29:10;2.25;;;1.00;;
51304;SDS011;37392;50.964;6.952;2022-10-16T14:31:42;1.60;;;1.05;;
51304;SDS011;37392;50.964;6.952;2022-10-16T14:34:27;5.60;;;1.17;;
51304;SDS011;37392;50.964;6.952;2022-10-16T14:37:24;7.13;;;1.25;;
51304;SDS011;37392;50.964;6.952;2022-10-16T14:39:55;2.08;;;0.60;;
51304;SDS011;37392;50.964;6.952;2022-10-16T14:42:23;6.60;;;3.88;;
51304;SDS011;37392;50.964;6.952;2022-10-16T14:44:50;4.57;;;1.00;;
51304;SDS011;37392;50.964;6.952;2022-10-16T14:47:24;0.50;;;0.47;;
51304;SDS011;37392;50.964;6.952;2022-10-16T14:49:54;2.08;;;0.88;;
51304;SDS011;37392;50.964;6.952;2022-10-16T14:52:21;8.77;;;3.55;;
51304;SDS011;37392;50.964;6.952;2022-10-16T14:54:50;4.28;;;1.67;;
51304;SDS011;37392;50.964;6.952;2022-10-16T14:57:21;3.40;;;1.40;;
51304;SDS011;37392;50.964;6.952;2022-10-16T14:59:49;1.90;;;1.00;;
51304;SDS011;37392;50.964;6.952;2022-10-16T15:02:25;3.20;;;1.25;;
51304;SDS011;37392;50.964;6.952;2022-10-16T15:05:12;7.15;;;1.00;;
51304;SDS011;37392;50.964;6.952;2022-10-16T15:07:51;1.27;;;0.65;;
51304;SDS011;37392;50.964;6.952;2022-10-16T15:10:20;4.63;;;1.10;;
51304;SDS011;37392;50.964;6.952;2022-10-16T15:12:49;5.35;;;1.42;;
51304;SDS011;37392;50.964;6.952;2022-10-16T15:17:57;2.40;;;1.13;;
51304;SDS011;37392;50.964;6.952;2022-10-16T15:20:28;2.40;;;1.70;;
51304;SDS011;37392;50.964;6.952;2022-10-16T15:23:06;9.32;;;2.22;;
51304;SDS011;37392;50.964;6.952;2022-10-16T15:25:53;2.97;;;1.25;;
51304;SDS011;37392;50.964;6.952;2022-10-16T15:28:21;5.13;;;2.53;;
51304;SDS011;37392;50.964;6.952;2022-10-16T15:30:49;3.60;;;1.98;;
51304;SDS011;37392;50.964;6.952;2022-10-16T15:33:17;2.40;;;1.13;;
51304;SDS011;37392;50.964;6.952;2022-10-16T15:35:48;3.97;;;1.92;;
51304;SDS011;37392;50.964;6.952;2022-10-16T15:38:16;3.20;;;1.83;;
51304;SDS011;37392;50.964;6.952;2022-10-16T15:40:45;5.93;;;3.33;;
51304;SDS011;37392;50.964;6.952;2022-10-16T15:43:12;3.22;;;1.70;;
51304;SDS011;37392;50.964;6.952;2022-10-16T15:45:38;7.57;;;2.70;;
51304;SDS011;37392;50.964;6.952;2022-10-16T15:48:09;3.88;;;1.48;;
51304;SDS011;37392;50.964;6.952;2022-10-16T15:50:43;2.65;;;1.33;;
51304;SDS011;37392;50.964;6.952;2022-10-16T15:53:09;4.05;;;2.10;;
51304;SDS011;37392;50.964;6.952;2022-10-16T15:55:42;5.75;;;3.00;;
51304;SDS011;37392;50.964;6.952;2022-10-16T15:58:18;5.30;;;1.33;;
51304;SDS011;37392;50.964;6.952;2022-10-16T16:00:43;4.22;;;1.08;;
51304;SDS011;37392;50.964;6.952;2022-10-16T16:03:09;3.50;;;1.63;;
51304;SDS011;37392;50.964;6.952;2022-10-16T16:05:37;3.47;;;1.85;;
51304;SDS011;37392;50.964;6.952;2022-10-16T16:08:04;3.88;;;1.75;;
51304;SDS011;37392;50.964;6.952;2022-10-16T16:10:30;6.78;;;1.45;;
51304;SDS011;37392;50.964;6.952;2022-10-16T16:12:55;4.75;;;1.73;;
51304;SDS011;37392;50.964;6.952;2022-10-16T16:15:21;2.33;;;1.40;;
51304;SDS011;37392;50.964;6.952;2022-10-16T16:17:48;2.95;;;1.30;;
51304;SDS011;37392;50.964;6.952;2022-10-16T16:20:14;5.00;;;1.70;;
51304;SDS011;37392;50.964;6.952;2022-10-16T16:22:41;1.58;;;1.25;;
51304;SDS011;37392;50.964;6.952;2022-10-16T16:25:08;1.75;;;1.20;;
51304;SDS011;37392;50.964;6.952;2022-10-16T16:27:34;6.47;;;2.47;;
51304;SDS011;37392;50.964;6.952;2022-10-16T16:30:18;11.50;;;6.07;;
51304;SDS011;37392;50.964;6.952;2022-10-16T16:32:45;16.73;;;9.93;;
51304;SDS011;37392;50.964;6.952;2022-10-16T16:35:11;47.80;;;17.65;;
51304;SDS011;37392;50.964;6.952;2022-10-16T16:37:36;15.77;;;7.13;;
51304;SDS011;37392;50.964;6.952;2022-10-16T16:40:02;7.72;;;4.25;;
51304;SDS011;37392;50.964;6.952;2022-10-16T16:42:28;3.25;;;1.33;;
51304;SDS011;37392;50.964;6.952;2022-10-16T16:44:54;3.60;;;1.25;;
51304;SDS011;37392;50.964;6.952;2022-10-16T16:47:20;6.47;;;1.40;;
51304;SDS011;37392;50.964;6.952;2022-10-16T16:49:45;5.85;;;1.92;;
51304;SDS011;37392;50.964;6.952;2022-10-16T16:52:12;4.85;;;2.05;;
51304;SDS011;37392;50.964;6.952;2022-10-16T16:54:38;15.55;;;2.80;;
51304;SDS011;37392;50.964;6.952;2022-10-16T16:57:04;9.93;;;4.53;;
51304;SDS011;37392;50.964;6.952;2022-10-16T16:59:30;9.02;;;3.22;;
51304;SDS011;37392;50.964;6.952;2022-10-16T17:01:57;3.28;;;2.15;;
51304;SDS011;37392;50.964;6.952;2022-10-16T17:04:24;8.10;;;2.90;;
51304;SDS011;37392;50.964;6.952;2022-10-16T17:06:52;14.85;;;7.63;;
51304;SDS011;37392;50.964;6.952;2022-10-16T17:09:19;8.95;;;4.63;;
51304;SDS011;37392;50.964;6.952;2022-10-16T17:11:46;8.07;;;4.03;;
51304;SDS011;37392;50.964;6.952;2022-10-16T17:14:13;10.88;;;5.05;;
51304;SDS011;37392;50.964;6.952;2022-10-16T17:16:40;9.32;;;4.63;;
51304;SDS011;37392;50.964;6.952;2022-10-16T17:19:11;4.72;;;2.92;;
51304;SDS011;37392;50.964;6.952;2022-10-16T17:21:40;6.70;;;1.40;;
51304;SDS011;37392;50.964;6.952;2022-10-16T17:24:10;5.63;;;2.42;;
51304;SDS011;37392;50.964;6.952;2022-10-16T17:26:36;5.78;;;1.77;;
51304;SDS011;37392;50.964;6.952;2022-10-16T17:29:04;3.10;;;1.27;;